Time;durP1;ratioP1;P1;durP2;ratioP2;P2;SDS_P1;SDS_P2;PMS_P1;PMS_P2;Temp;Humidity;BMP_temperature;BMP_pressure;BME280_temperature;BME280_humidity;BME280_pressure;Samples;Min_cycle;Max_cycle;Signal;HPM_P1;HPM_P2
2021/04/21 00:00:30;;;;;;;14.10;12.68;;;7.80;99.90;;;;;;4924227;29;20230;-86
2021/04/21 00:02:58;;;;;;;13.13;11.88;;;7.80;99.90;;;;;;4923702;29;20206;-86
2021/04/21 00:05:25;;;;;;;13.60;11.48;;;7.80;99.90;;;;;;4924096;29;20210;-86
2021/04/21 00:07:53;;;;;;;17.05;13.02;;;7.80;99.90;;;;;;4924563;29;20329;-86
2021/04/21 00:10:22;;;;;;;13.65;11.90;;;7.80;99.90;;;;;;4924407;29;20230;-86
2021/04/21 00:12:55;;;;;;;12.60;11.27;;;7.80;99.90;;;;;;4924875;29;20239;-86
2021/04/21 00:15:24;;;;;;;13.30;11.57;;;7.80;99.90;;;;;;4923272;29;20210;-86
2021/04/21 00:17:55;;;;;;;14.30;12.07;;;7.70;99.90;;;;;;4923604;29;20230;-86
2021/04/21 00:20:26;;;;;;;19.05;13.05;;;7.70;99.90;;;;;;4924767;29;20214;-86
2021/04/21 00:22:56;;;;;;;15.57;13.65;;;7.70;99.90;;;;;;4924303;29;20354;-86
2021/04/21 00:25:25;;;;;;;16.23;14.07;;;7.70;99.90;;;;;;4924651;29;20220;-86
2021/04/21 00:28:04;;;;;;;;;;;;;;;;;;;;;
2021/04/21 00:30:49;;;;;;;;;;;;;;;;;;;;;
2021/04/21 00:33:32;;;;;;;13.07;11.77;;;7.60;99.90;;;;;;4923534;29;20223;-86
2021/04/21 00:36:11;;;;;;;13.27;11.63;;;7.60;99.90;;;;;;4924210;29;20216;-86
2021/04/21 00:45:12;;;;;;;14.73;13.27;;;7.60;99.90;;;;;;4899050;29;20217;-86
2021/04/21 00:47:59;;;;;;;;;;;;;;;;;;;;;
2021/04/21 00:53:43;;;;;;;15.05;12.65;;;7.60;99.90;;;;;;4921508;29;20228;-86
2021/04/21 00:56:38;;;;;;;14.00;12.60;;;7.50;99.90;;;;;;4921936;29;20701;-86
2021/04/21 00:59:16;;;;;;;13.30;11.75;;;7.50;99.90;;;;;;4889781;29;20310;-86
2021/04/21 01:02:18;;;;;;;;;;;;;;;;;;;;;
2021/04/21 01:05:16;;;;;;;;;;;;;;;;;;;;;
2021/04/21 01:11:08;;;;;;;14.73;11.95;;;7.40;99.90;;;;;;4918791;29;20235;-86
2021/04/21 01:13:53;;;;;;;;;;;;;;;;;;;;;
2021/04/21 01:16:39;;;;;;;16.05;12.35;;;7.40;99.90;;;;;;4921060;29;20239;-86
2021/04/21 01:19:24;;;;;;;14.75;13.25;;;7.40;99.90;;;;;;4920641;29;20273;-86
2021/04/21 01:22:17;;;;;;;15.45;13.20;;;7.30;99.90;;;;;;4920645;29;20260;-86
2021/04/21 01:25:08;;;;;;;13.23;11.85;;;7.30;99.90;;;;;;4919950;29;20222;-86
2021/04/21 01:27:52;;;;;;;12.85;10.93;;;7.30;99.90;;;;;;4920039;29;20227;-86
2021/04/21 01:30:22;;;;;;;14.15;12.85;;;7.20;99.90;;;;;;4920527;29;20234;-86
2021/04/21 01:32:52;;;;;;;15.38;12.55;;;7.20;99.90;;;;;;4920869;29;20215;-86
2021/04/21 01:35:22;;;;;;;13.15;11.75;;;7.20;99.90;;;;;;4921062;29;20210;-86
2021/04/21 01:37:51;;;;;;;17.27;14.48;;;7.20;99.90;;;;;;4920851;29;20235;-86
2021/04/21 01:40:24;;;;;;;15.15;12.98;;;7.20;99.90;;;;;;4921047;29;20259;-86
2021/04/21 01:42:54;;;;;;;14.48;12.68;;;7.10;99.90;;;;;;4920319;29;20205;-86
2021/04/21 01:45:25;;;;;;;15.93;12.40;;;7.10;99.90;;;;;;4920379;29;20219;-86
2021/04/21 01:47:54;;;;;;;13.63;12.30;;;7.10;99.90;;;;;;4920684;29;20239;-86
2021/04/21 01:50:23;;;;;;;13.48;12.07;;;7.10;99.90;;;;;;4920912;29;20275;-86
2021/04/21 01:53:04;;;;;;;14.20;11.57;;;7.10;99.90;;;;;;4921200;29;20225;-86
2021/04/21 01:55:46;;;;;;;18.92;13.70;;;7.10;99.90;;;;;;4921497;29;20198;-85
2021/04/21 01:58:28;;;;;;;15.18;12.60;;;7.00;99.90;;;;;;4922186;29;20232;-84
2021/04/21 02:01:34;;;;;;;14.35;12.43;;;7.00;99.90;;;;;;4921799;29;20222;-85
2021/04/21 02:04:44;;;;;;;15.57;13.35;;;7.00;99.90;;;;;;4903254;29;20202;-85
2021/04/21 02:07:48;;;;;;;15.10;13.02;;;6.90;99.90;;;;;;4922276;29;20231;-84
2021/04/21 02:10:45;;;;;;;19.05;13.65;;;6.90;99.90;;;;;;4864644;29;20242;-84
2021/04/21 02:13:35;;;;;;;14.27;12.63;;;6.90;99.90;;;;;;4919969;29;20239;-84
2021/04/21 02:16:38;;;;;;;;;;;;;;;;;;;;;
2021/04/21 02:19:39;;;;;;;18.92;14.02;;;6.90;99.90;;;;;;4915059;29;20273;-85
2021/04/21 02:22:31;;;;;;;15.32;13.32;;;6.90;99.90;;;;;;4918532;29;20206;-85
2021/04/21 02:25:05;;;;;;;15.38;13.77;;;6.80;99.90;;;;;;4921042;29;20200;-84
2021/04/21 02:27:42;;;;;;;15.55;13.23;;;6.80;99.90;;;;;;4921537;29;20225;-84
2021/04/21 02:30:13;;;;;;;16.17;14.48;;;6.80;99.90;;;;;;4918052;29;20234;-86
2021/04/21 02:32:56;;;;;;;15.50;12.98;;;6.80;99.90;;;;;;4916819;29;20215;-86
2021/04/21 02:35:29;;;;;;;15.77;14.23;;;6.70;99.90;;;;;;4916357;29;20218;-86
2021/04/21 02:38:04;;;;;;;18.08;13.85;;;6.70;99.90;;;;;;4917012;29;20223;-86
2021/04/21 02:40:39;;;;;;;16.52;13.05;;;6.70;99.90;;;;;;4916520;29;20187;-86
2021/04/21 02:43:15;;;;;;;16.30;13.45;;;6.70;99.90;;;;;;4916608;29;20305;-86
2021/04/21 02:45:50;;;;;;;16.55;14.82;;;6.70;99.90;;;;;;4917194;29;20219;-86
2021/04/21 02:48:27;;;;;;;20.55;15.55;;;6.60;99.90;;;;;;4918276;29;20230;-86
2021/04/21 02:51:20;;;;;;;17.42;15.55;;;6.60;99.90;;;;;;4916662;29;20266;-86
2021/04/21 02:56:55;;;;;;;22.20;17.17;;;6.60;99.90;;;;;;4915207;29;20219;-87
2021/04/21 02:59:47;;;;;;;19.48;16.27;;;6.60;99.90;;;;;;4916095;29;20204;-86
2021/04/21 03:02:54;;;;;;;17.38;15.40;;;6.50;99.90;;;;;;4916471;29;20219;-86
2021/04/21 03:06:02;;;;;;;18.90;14.00;;;6.60;99.90;;;;;;4916550;29;20210;-86
2021/04/21 03:22:15;;;;;;;;;;;;;;;;;;;;;
2021/04/21 03:25:33;;;;;;;;;;;;;;;;;;;;;
2021/04/21 03:28:57;;;;;;;;;;;;;;;;;;;;;
2021/04/21 03:32:01;;;;;;;;;;;;;;;;;;;;;
2021/04/21 03:38:14;;;;;;;20.85;15.18;;;6.30;99.90;;;;;;4914820;29;20239;-86
2021/04/21 03:44:37;;;;;;;;;;;;;;;;;;;;;
2021/04/21 03:47:54;;;;;;;23.67;18.40;;;6.20;99.90;;;;;;4874132;29;20246;-86
2021/04/21 03:50:58;;;;;;;;;;;;;;;;;;;;;
2021/04/21 03:53:47;;;;;;;20.98;18.67;;;6.20;99.90;;;;;;4915215;29;20246;-86
2021/04/21 03:56:38;;;;;;;21.08;16.00;;;6.10;99.90;;;;;;4915833;29;20588;-86
2021/04/21 04:02:34;;;;;;;23.05;18.38;;;6.10;99.90;;;;;;4901613;29;20657;-87
2021/04/21 04:05:10;;;;;;;27.08;18.45;;;6.10;99.90;;;;;;4862404;29;20687;-87
2021/04/21 04:07:41;;;;;;;23.05;18.67;;;6.00;99.90;;;;;;4864018;29;20236;-87
2021/04/21 04:10:14;;;;;;;21.73;18.35;;;6.00;99.90;;;;;;4902214;29;20235;-87
2021/04/21 04:12:44;;;;;;;23.58;18.63;;;6.00;99.90;;;;;;4920497;29;20195;-83
2021/04/21 04:15:15;;;;;;;24.20;17.75;;;6.00;99.90;;;;;;4921545;29;20199;-84
2021/04/21 04:17:49;;;;;;;24.92;22.05;;;6.00;99.90;;;;;;4921283;29;20227;-83
2021/04/21 04:20:17;;;;;;;20.45;16.33;;;6.00;99.90;;;;;;4915640;29;20232;-87
2021/04/21 04:22:48;;;;;;;24.98;19.42;;;6.00;99.90;;;;;;4900946;29;20245;-86
2021/04/21 04:25:15;;;;;;;23.50;17.80;;;5.90;99.90;;;;;;4901871;29;20546;-87
2021/04/21 04:27:42;;;;;;;22.25;19.75;;;5.90;99.90;;;;;;4905224;29;20235;-86
2021/04/21 04:30:11;;;;;;;25.30;17.73;;;5.80;99.90;;;;;;4914969;29;20234;-86
2021/04/21 04:32:40;;;;;;;22.48;17.02;;;5.80;99.90;;;;;;4917241;29;20225;-86
2021/04/21 04:35:09;;;;;;;23.92;20.20;;;5.80;99.90;;;;;;4918781;29;20591;-86
2021/04/21 04:37:39;;;;;;;23.38;17.75;;;5.80;99.90;;;;;;4919046;29;20225;-86
2021/04/21 04:40:11;;;;;;;27.75;19.60;;;5.80;99.90;;;;;;4918439;29;20208;-86
2021/04/21 04:42:41;;;;;;;26.67;19.17;;;5.80;99.90;;;;;;4917814;29;20294;-86
2021/04/21 04:45:11;;;;;;;24.30;18.05;;;5.80;99.90;;;;;;4918521;29;20745;-86
2021/04/21 04:47:55;;;;;;;;;;;;;;;;;;;;;
2021/04/21 04:51:03;;;;;;;;;;;;;;;;;;;;;
2021/04/21 04:53:59;;;;;;;21.98;17.65;;;5.90;99.90;;;;;;4858543;29;20252;-86
2021/04/21 04:56:44;;;;;;;17.70;15.93;;;5.90;99.90;;;;;;4908054;29;20308;-87
2021/04/21 04:59:26;;;;;;;22.85;17.23;;;5.90;99.90;;;;;;4916324;29;20207;-86
2021/04/21 05:02:10;;;;;;;22.88;17.35;;;5.90;99.90;;;;;;4916328;29;20302;-87
2021/04/21 05:04:38;;;;;;;20.00;16.83;;;6.00;99.90;;;;;;4916113;29;20210;-87
2021/04/21 05:07:26;;;;;;;20.83;16.77;;;6.00;99.90;;;;;;4916794;29;20235;-87
2021/04/21 05:10:16;;;;;;;25.58;18.95;;;6.10;99.90;;;;;;4876813;29;20270;-86
2021/04/21 05:12:59;;;;;;;20.92;17.15;;;6.10;99.90;;;;;;4881031;29;20213;-87
2021/04/21 05:16:13;;;;;;;17.98;15.75;;;6.20;99.90;;;;;;4916046;29;20211;-87
2021/04/21 05:19:06;;;;;;;20.27;16.48;;;6.20;99.90;;;;;;4925516;29;20233;-86
2021/04/21 05:22:11;;;;;;;18.05;16.23;;;6.20;99.90;;;;;;4928952;29;20258;-86
2021/04/21 05:25:13;;;;;;;17.60;15.02;;;6.30;99.90;;;;;;4920329;29;20206;-87
2021/04/21 05:28:13;;;;;;;20.45;15.60;;;6.30;99.90;;;;;;4922183;29;20233;-87
2021/04/21 05:31:15;;;;;;;19.88;16.40;;;6.40;99.90;;;;;;4890455;29;20234;-86
2021/04/21 05:34:39;;;;;;;26.85;18.10;;;6.40;99.90;;;;;;4927535;29;20186;-86
2021/04/21 05:37:43;;;;;;;18.10;15.95;;;6.50;99.90;;;;;;4929005;29;20223;-84
2021/04/21 05:40:44;;;;;;;22.58;17.10;;;6.60;99.90;;;;;;4925927;29;20266;-84
2021/04/21 05:43:47;;;;;;;24.20;16.88;;;6.70;99.90;;;;;;4924772;29;20207;-86
2021/04/21 05:47:10;;;;;;;24.27;16.90;;;6.80;99.90;;;;;;4889469;29;20286;-86
2021/04/21 05:57:03;;;;;;;21.10;17.98;;;7.10;99.90;;;;;;4890653;29;20247;-86
2021/04/21 06:00:01;;;;;;;20.92;17.70;;;7.10;99.90;;;;;;4904071;29;20203;-87
2021/04/21 06:02:30;;;;;;;26.33;18.27;;;7.30;99.90;;;;;;4905204;29;20241;-82
2021/04/21 06:05:08;;;;;;;24.90;19.00;;;7.40;99.90;;;;;;4920595;29;20198;-82
2021/04/21 06:07:35;;;;;;;25.33;18.98;;;7.50;99.90;;;;;;4910163;29;20227;-84
2021/04/21 06:10:19;;;;;;;26.08;18.63;;;7.60;99.90;;;;;;4905294;29;20235;-86
2021/04/21 06:12:46;;;;;;;25.90;20.17;;;7.70;99.90;;;;;;4905643;29;20199;-85
2021/04/21 14:45:03;;;;;;;8.23;7.63;;;25.40;36.40;;;;;;4718766;30;21057;-84
2021/04/21 14:50:16;;;;;;;10.17;9.17;;;26.20;35.20;;;;;;4838984;29;20504;-85
2021/04/21 15:06:46;;;;;;;;;;;;;;;;;;;;;
2021/04/21 15:34:04;;;;;;;8.13;7.27;;;18.50;43.00;;;;;;4711510;30;20456;-84
2021/04/21 15:50:15;;;;;;;6.93;6.33;;;18.10;45.90;;;;;;4746253;30;20538;-84
2021/04/21 15:52:41;;;;;;;7.53;6.90;;;18.10;46.10;;;;;;4783751;30;20520;-84
2021/04/21 15:55:09;;;;;;;7.20;6.60;;;18.00;46.40;;;;;;4882237;29;20496;-84
2021/04/21 15:57:37;;;;;;;5.93;5.40;;;18.10;46.20;;;;;;4922288;29;20475;-84
2021/04/21 16:00:05;;;;;;;8.87;8.00;;;18.20;45.50;;;;;;4920855;29;20820;-84
2021/04/21 16:02:37;;;;;;;6.30;5.73;;;18.50;46.30;;;;;;4920257;29;20795;-85
2021/04/21 16:05:54;;;;;;;6.23;5.73;;;18.70;45.90;;;;;;4922330;29;20527;-85
2021/04/21 16:30:25;;;;;;;7.87;7.03;;;21.40;45.10;;;;;;4830511;29;20499;-87
2021/04/21 16:32:53;;;;;;;7.33;6.63;;;22.20;42.00;;;;;;4871835;29;20531;-86
2021/04/21 16:35:21;;;;;;;10.93;7.97;;;22.80;42.30;;;;;;4926523;29;20467;-87
2021/04/21 16:37:48;;;;;;;7.43;6.90;;;23.20;40.10;;;;;;4925271;29;20501;-86
2021/04/21 16:40:16;;;;;;;6.87;6.27;;;23.30;39.90;;;;;;4926109;29;20536;-85
2021/04/21 16:42:44;;;;;;;7.70;6.80;;;23.70;40.40;;;;;;4924806;29;20454;-86
2021/04/21 16:45:15;;;;;;;8.10;7.30;;;24.10;39.70;;;;;;4926171;29;20502;-86
2021/04/21 16:47:44;;;;;;;7.77;7.03;;;23.90;38.40;;;;;;4931337;29;20964;-87
2021/04/21 16:50:13;;;;;;;7.07;6.47;;;23.70;38.30;;;;;;4933121;29;20509;-87
2021/04/21 16:52:45;;;;;;;7.50;6.80;;;23.20;39.20;;;;;;4923298;29;20959;-87
2021/04/21 16:55:14;;;;;;;9.10;8.30;;;22.90;39.70;;;;;;4921957;29;21012;-88
2021/04/21 16:57:44;;;;;;;8.53;7.73;;;22.10;39.70;;;;;;4923636;29;20484;-87
2021/04/21 17:00:14;;;;;;;7.50;6.70;;;21.80;40.70;;;;;;4923745;29;20485;-87
2021/04/21 17:02:43;;;;;;;9.17;8.27;;;21.10;41.00;;;;;;4923471;29;20470;-87
2021/04/21 17:05:17;;;;;;;8.40;7.70;;;20.60;42.10;;;;;;4922730;29;20461;-87
2021/04/21 17:21:44;;;;;;;7.60;6.23;;;19.60;43.70;;;;;;4726117;30;20455;-85
2021/04/21 17:24:11;;;;;;;7.40;6.70;;;19.50;44.40;;;;;;4914132;29;20549;-84
2021/04/21 17:26:42;;;;;;;7.00;6.30;;;19.40;44.00;;;;;;4927720;29;20481;-83
2021/04/21 17:29:09;;;;;;;6.70;6.20;;;19.30;44.30;;;;;;4926709;29;20490;-84
2021/04/21 17:34:58;;;;;;;;;;;;;;;;;;;;;
2021/04/21 17:40:41;;;;;;;6.53;5.83;;;19.60;44.20;;;;;;4885146;29;21347;-82
2021/04/21 17:43:36;;;;;;;6.23;5.47;;;19.90;44.50;;;;;;4923834;29;20481;-84
2021/04/21 17:46:40;;;;;;;7.90;6.53;;;19.90;43.40;;;;;;4925224;29;20450;-85
2021/04/21 17:49:12;;;;;;;6.60;5.83;;;19.70;43.00;;;;;;4864939;29;20521;-84
2021/04/21 17:52:00;;;;;;;7.60;6.90;;;19.50;43.80;;;;;;4910822;29;20524;-85
2021/04/21 17:54:55;;;;;;;;;;;;;;;;;;;;;
2021/04/21 17:57:37;;;;;;;7.70;7.00;;;19.10;44.40;;;;;;4923724;29;20549;-84
2021/04/21 18:00:13;;;;;;;8.67;7.70;;;18.70;45.00;;;;;;4924549;29;20532;-85
2021/04/21 18:02:43;;;;;;;8.70;7.90;;;18.40;45.70;;;;;;4924016;29;20418;-83
2021/04/21 18:05:14;;;;;;;8.60;7.70;;;18.10;46.10;;;;;;4924525;29;20456;-85
2021/04/21 18:07:41;;;;;;;8.50;7.80;;;18.00;46.70;;;;;;4923797;29;20482;-84
2021/04/21 18:10:12;;;;;;;8.07;7.40;;;18.00;47.20;;;;;;4923690;29;20440;-84
2021/04/21 18:12:52;;;;;;;8.93;7.77;;;17.70;47.10;;;;;;4923770;29;20441;-83
2021/04/21 18:15:26;;;;;;;12.50;8.20;;;17.50;47.50;;;;;;4924381;29;20428;-85
2021/04/21 18:18:08;;;;;;;8.53;7.73;;;17.30;48.30;;;;;;4924230;29;20554;-85
2021/04/21 18:20:47;;;;;;;8.53;7.70;;;17.10;48.40;;;;;;4923402;29;20457;-85
2021/04/21 18:23:28;;;;;;;8.77;7.97;;;17.10;48.80;;;;;;4923240;29;20492;-85
2021/04/21 18:26:21;;;;;;;8.40;7.70;;;17.00;49.10;;;;;;4924120;29;20444;-85
2021/04/21 18:28:47;;;;;;;9.50;8.60;;;16.90;49.40;;;;;;4883640;29;20515;-84
2021/04/21 18:31:13;;;;;;;10.23;8.80;;;16.80;49.80;;;;;;4883468;29;20576;-84
2021/04/21 18:33:43;;;;;;;10.50;9.40;;;16.70;50.10;;;;;;4923160;29;20455;-84
2021/04/21 18:36:24;;;;;;;;;;;;;;;;;;;;;
2021/04/21 18:38:54;;;;;;;9.23;7.80;;;16.40;50.80;;;;;;4920694;29;20582;-84
2021/04/21 18:41:26;;;;;;;8.80;7.93;;;16.30;50.70;;;;;;4921867;29;20450;-85
2021/04/21 18:43:55;;;;;;;10.27;9.43;;;16.20;50.90;;;;;;4922357;29;20472;-84
2021/04/21 18:46:32;;;;;;;9.53;8.53;;;16.20;51.00;;;;;;4921923;29;20543;-85
2021/04/21 18:49:12;;;;;;;;;;;;;;;;;;;;;
2021/04/21 18:51:39;;;;;;;8.30;7.37;;;16.10;51.70;;;;;;4918084;29;20577;-84
2021/04/21 18:54:13;;;;;;;9.40;8.40;;;16.20;52.20;;;;;;4922322;29;20451;-83
2021/04/21 18:57:16;;;;;;;8.93;7.87;;;16.10;52.40;;;;;;4922009;29;20439;-84
2021/04/21 19:00:20;;;;;;;8.97;8.07;;;16.10;52.60;;;;;;4916977;29;20454;-84
2021/04/21 19:03:12;;;;;;;;;;;;;;;;;;;;;
2021/04/21 19:06:04;;;;;;;8.33;7.60;;;15.90;52.90;;;;;;4905024;29;20527;-83
2021/04/21 19:08:32;;;;;;;9.57;8.57;;;15.90;53.30;;;;;;4922409;29;20517;-84
2021/04/21 19:11:13;;;;;;;9.10;6.83;;;15.80;53.80;;;;;;4922275;29;20589;-85
2021/04/21 19:13:52;;;;;;;8.77;7.87;;;15.80;53.70;;;;;;4922499;29;20451;-84
2021/04/21 19:16:26;;;;;;;8.97;8.17;;;15.70;53.90;;;;;;4922203;29;20556;-85
2021/04/21 19:19:07;;;;;;;;;;;;;;;;;;;;;
2021/04/21 19:21:50;;;;;;;11.23;9.43;;;15.60;53.80;;;;;;4919055;29;20545;-84
2021/04/21 19:24:31;;;;;;;11.57;10.47;;;15.50;53.80;;;;;;4922241;29;20491;-85
2021/04/21 19:26:59;;;;;;;9.83;8.87;;;15.20;53.90;;;;;;4921823;29;20528;-84
2021/04/21 19:29:32;;;;;;;8.17;7.27;;;15.20;54.10;;;;;;4923087;29;20523;-84
2021/04/21 19:32:42;;;;;;;8.57;7.77;;;15.10;54.30;;;;;;4922221;29;20904;-84
2021/04/21 19:35:17;;;;;;;7.30;6.70;;;15.10;54.80;;;;;;4845760;29;21119;-84
2021/04/21 19:37:51;;;;;;;9.83;8.77;;;15.10;55.10;;;;;;4905291;29;20505;-84
2021/04/21 19:40:21;;;;;;;8.10;7.30;;;15.00;55.30;;;;;;4922086;29;20814;-84
2021/04/21 19:42:48;;;;;;;10.03;8.93;;;14.90;55.80;;;;;;4921948;29;20810;-84
2021/04/21 19:45:16;;;;;;;9.30;7.73;;;14.70;56.00;;;;;;4921781;29;20815;-84
2021/04/21 19:47:43;;;;;;;9.70;8.67;;;14.70;56.30;;;;;;4922070;29;20549;-84
2021/04/21 19:50:12;;;;;;;8.50;7.60;;;14.70;56.30;;;;;;4921655;29;20462;-84
2021/04/21 19:52:39;;;;;;;8.80;7.97;;;14.60;56.20;;;;;;4921468;29;20459;-84
2021/04/21 19:55:08;;;;;;;7.80;7.10;;;14.40;55.90;;;;;;4920862;29;20465;-84
2021/04/21 19:57:34;;;;;;;8.03;7.23;;;14.30;56.40;;;;;;4921703;29;21004;-84
2021/04/21 20:00:01;;;;;;;10.43;9.13;;;14.30;57.00;;;;;;4921865;29;20532;-83
2021/04/21 20:02:27;;;;;;;9.80;8.90;;;14.20;57.40;;;;;;4925245;29;20463;-84
2021/04/21 20:04:53;;;;;;;9.10;7.83;;;14.20;57.80;;;;;;4926092;29;20438;-83
2021/04/21 20:07:22;;;;;;;10.87;9.07;;;14.30;58.10;;;;;;4926480;29;20831;-84
2021/04/21 20:09:50;;;;;;;10.67;8.77;;;14.20;58.60;;;;;;4926797;29;21157;-85
2021/04/21 20:12:16;;;;;;;12.53;9.00;;;14.20;58.70;;;;;;4926296;29;20499;-84
2021/04/21 20:14:45;;;;;;;11.53;9.50;;;14.20;58.90;;;;;;4926113;29;20474;-86
2021/04/21 20:17:16;;;;;;;9.90;9.00;;;14.10;59.30;;;;;;4925899;29;21152;-86
2021/04/21 20:19:42;;;;;;;12.13;9.03;;;14.00;59.50;;;;;;4926518;29;20449;-85
2021/04/21 20:22:08;;;;;;;11.80;8.33;;;14.00;59.60;;;;;;4934526;29;20450;-84
2021/04/21 20:24:35;;;;;;;9.30;8.40;;;13.90;59.80;;;;;;4943206;29;20511;-84
2021/04/21 20:27:02;;;;;;;9.90;8.90;;;13.90;60.40;;;;;;4940445;29;20442;-82
2021/04/21 20:29:28;;;;;;;10.63;9.53;;;13.80;60.70;;;;;;4932019;29;20466;-84
2021/04/21 20:31:54;;;;;;;9.87;8.87;;;13.80;61.00;;;;;;4925079;29;20479;-83
2021/04/21 20:34:21;;;;;;;10.43;9.53;;;13.90;61.50;;;;;;4926045;29;20953;-84
2021/04/21 20:36:47;;;;;;;12.47;10.20;;;13.90;61.80;;;;;;4926066;29;20446;-83
2021/04/21 20:39:13;;;;;;;10.23;9.23;;;13.90;62.10;;;;;;4924947;29;20454;-83
2021/04/21 20:41:40;;;;;;;11.20;8.47;;;13.90;62.40;;;;;;4925130;29;20465;-84
2021/04/21 20:44:07;;;;;;;11.03;8.43;;;13.90;62.50;;;;;;4925301;29;20486;-83
2021/04/21 20:46:34;;;;;;;9.70;8.83;;;13.80;62.30;;;;;;4924955;29;20526;-83
2021/04/21 20:49:00;;;;;;;8.80;7.93;;;13.80;63.00;;;;;;4924676;29;20597;-83
2021/04/21 20:51:26;;;;;;;9.83;8.87;;;13.80;63.20;;;;;;4924575;29;20486;-83
2021/04/21 20:53:52;;;;;;;8.97;8.20;;;13.70;63.10;;;;;;4924686;29;20454;-83
2021/04/21 20:56:19;;;;;;;9.50;8.70;;;13.70;64.00;;;;;;4924774;29;20453;-84
2021/04/21 20:58:46;;;;;;;11.07;10.07;;;13.70;64.10;;;;;;4924021;29;20526;-84
2021/04/21 21:01:12;;;;;;;10.17;9.27;;;13.60;64.40;;;;;;4924703;29;20474;-83
2021/04/21 21:03:38;;;;;;;13.30;9.10;;;13.50;65.10;;;;;;4924975;29;20513;-83
2021/04/21 21:06:05;;;;;;;9.40;8.40;;;13.50;65.80;;;;;;4932856;29;20460;-84
2021/04/21 21:08:31;;;;;;;10.40;9.30;;;13.40;66.80;;;;;;4940095;29;20541;-83
2021/04/21 21:10:57;;;;;;;10.80;9.13;;;13.40;66.40;;;;;;4931731;29;20514;-84
2021/04/21 21:13:23;;;;;;;9.33;8.50;;;13.40;66.50;;;;;;4926813;29;20462;-83
2021/04/21 21:15:50;;;;;;;8.27;7.47;;;13.30;66.70;;;;;;4927196;29;20461;-83
2021/04/21 21:18:19;;;;;;;9.97;9.07;;;13.30;67.60;;;;;;4926893;29;20479;-83
2021/04/21 21:20:47;;;;;;;12.27;8.80;;;13.10;68.10;;;;;;4926854;29;20545;-84
2021/04/21 21:23:13;;;;;;;9.67;8.77;;;13.10;68.30;;;;;;4924293;29;20453;-84
2021/04/21 21:25:39;;;;;;;10.43;9.27;;;13.00;68.30;;;;;;4924517;29;20477;-84
2021/04/21 21:28:08;;;;;;;10.03;9.03;;;13.00;68.70;;;;;;4925279;29;20486;-82
2021/04/21 21:30:35;;;;;;;10.13;9.13;;;12.90;69.10;;;;;;4924463;29;20501;-82
2021/04/21 21:33:02;;;;;;;10.10;8.77;;;12.90;69.60;;;;;;4924398;29;20465;-84
2021/04/21 21:35:28;;;;;;;12.53;11.23;;;12.80;69.80;;;;;;4925091;29;20455;-84
2021/04/21 21:37:54;;;;;;;9.70;8.63;;;12.80;70.40;;;;;;4923608;29;20484;-83
2021/04/21 21:40:21;;;;;;;10.20;9.17;;;12.80;70.40;;;;;;4924078;29;20486;-85
2021/04/21 21:42:47;;;;;;;10.40;9.10;;;12.80;70.70;;;;;;4923477;29;20459;-83
2021/04/21 21:45:15;;;;;;;10.40;9.30;;;12.80;71.00;;;;;;4924616;29;20513;-84
2021/04/21 21:47:41;;;;;;;9.60;8.80;;;12.70;71.20;;;;;;4923956;29;20484;-83
2021/04/21 21:50:11;;;;;;;10.27;9.37;;;12.70;71.70;;;;;;4924447;29;20458;-85
2021/04/21 21:52:38;;;;;;;10.73;9.20;;;12.70;72.20;;;;;;4923854;29;20453;-85
2021/04/21 21:55:05;;;;;;;13.00;11.80;;;12.70;72.50;;;;;;4924089;29;20983;-85
2021/04/21 21:57:31;;;;;;;10.40;9.40;;;12.60;72.50;;;;;;4923851;29;20470;-86
2021/04/21 21:59:58;;;;;;;10.50;9.57;;;12.60;72.80;;;;;;4924115;29;20462;-86
2021/04/21 22:02:27;;;;;;;10.33;9.33;;;12.50;73.10;;;;;;4923977;29;20454;-86
2021/04/21 22:04:55;;;;;;;10.43;9.43;;;12.40;73.50;;;;;;4924242;29;21149;-85
2021/04/21 22:07:23;;;;;;;9.70;8.60;;;12.40;73.80;;;;;;4923704;29;20813;-86
2021/04/21 22:09:50;;;;;;;11.87;10.77;;;12.30;74.30;;;;;;4923729;29;20528;-85
2021/04/21 22:12:16;;;;;;;8.43;7.63;;;12.30;74.80;;;;;;4922708;29;20500;-86
2021/04/21 22:14:43;;;;;;;9.60;8.80;;;12.30;75.10;;;;;;4923299;29;20462;-85
2021/04/21 22:17:09;;;;;;;11.20;10.00;;;12.20;75.40;;;;;;4923366;29;20833;-86
2021/04/21 22:19:36;;;;;;;9.30;8.40;;;12.10;75.80;;;;;;4922974;29;20468;-85
2021/04/21 22:22:03;;;;;;;11.90;9.37;;;12.10;76.20;;;;;;4923486;29;20457;-86
2021/04/21 22:24:30;;;;;;;9.50;8.73;;;12.00;76.70;;;;;;4923208;29;20458;-85
2021/04/21 22:26:56;;;;;;;9.30;8.50;;;11.90;77.10;;;;;;4923272;29;20465;-86
2021/04/21 22:29:23;;;;;;;11.00;9.67;;;11.90;77.60;;;;;;4922858;29;20466;-84
2021/04/21 22:31:49;;;;;;;10.83;9.70;;;11.80;78.00;;;;;;4923142;29;20501;-84
2021/04/21 22:34:16;;;;;;;13.40;10.13;;;11.80;78.30;;;;;;4923308;29;20454;-84
2021/04/21 22:36:45;;;;;;;11.30;10.20;;;11.70;78.60;;;;;;4923315;29;20830;-84
2021/04/21 22:39:11;;;;;;;14.03;10.03;;;11.60;79.10;;;;;;4922459;29;20473;-84
2021/04/21 22:41:39;;;;;;;12.13;10.93;;;11.60;79.60;;;;;;4922703;29;20450;-84
2021/04/21 22:44:06;;;;;;;9.67;8.67;;;11.60;80.00;;;;;;4922626;29;20461;-84
2021/04/21 22:46:32;;;;;;;9.97;8.87;;;11.50;80.30;;;;;;4922675;29;20462;-84
2021/04/21 22:48:59;;;;;;;8.90;8.10;;;11.40;80.60;;;;;;4922913;29;20480;-84
2021/04/21 22:51:25;;;;;;;10.03;8.70;;;11.40;81.20;;;;;;4922540;29;20497;-84
2021/04/21 22:53:51;;;;;;;9.00;8.20;;;11.40;81.50;;;;;;4922792;29;20466;-84
2021/04/21 22:56:17;;;;;;;9.27;8.30;;;11.30;82.00;;;;;;4922493;29;20972;-84
2021/04/21 22:58:44;;;;;;;10.83;9.80;;;11.30;82.30;;;;;;4922014;29;20488;-84
2021/04/21 23:01:15;;;;;;;9.30;8.40;;;11.30;82.70;;;;;;4923005;29;20448;-84
2021/04/21 23:03:41;;;;;;;11.30;9.37;;;11.30;83.10;;;;;;4922004;29;20457;-84
2021/04/21 23:06:07;;;;;;;9.17;8.27;;;11.20;83.20;;;;;;4922228;29;20479;-84
2021/04/21 23:08:33;;;;;;;9.73;8.83;;;11.20;84.10;;;;;;4922495;29;20516;-84
2021/04/21 23:11:00;;;;;;;11.50;9.47;;;11.10;83.80;;;;;;4922145;29;20517;-84
2021/04/21 23:13:28;;;;;;;10.43;9.30;;;11.10;84.40;;;;;;4922547;29;20460;-84
2021/04/21 23:15:56;;;;;;;10.17;9.33;;;11.10;84.90;;;;;;4922937;29;20468;-84
2021/04/21 23:18:24;;;;;;;10.30;9.20;;;11.00;85.60;;;;;;4922400;29;20845;-84
2021/04/21 23:20:52;;;;;;;10.80;9.00;;;11.00;85.90;;;;;;4922634;29;20465;-84
2021/04/21 23:23:18;;;;;;;11.47;10.30;;;11.00;86.30;;;;;;4921873;29;20466;-84
2021/04/21 23:25:44;;;;;;;9.67;8.77;;;11.00;86.80;;;;;;4921844;29;20461;-84
2021/04/21 23:28:10;;;;;;;9.83;8.83;;;10.90;87.10;;;;;;4922244;29;20544;-84
2021/04/21 23:30:37;;;;;;;9.77;8.87;;;10.90;87.80;;;;;;4921866;29;20477;-84
2021/04/21 23:33:04;;;;;;;10.07;9.17;;;10.90;88.20;;;;;;4921350;29;20461;-84
2021/04/21 23:35:30;;;;;;;10.77;9.83;;;10.80;88.50;;;;;;4921334;29;20447;-84
2021/04/21 23:37:57;;;;;;;11.30;10.20;;;10.70;88.80;;;;;;4921462;29;20492;-84
2021/04/21 23:40:24;;;;;;;9.90;8.87;;;10.70;89.20;;;;;;4922146;29;20551;-84
2021/04/21 23:42:51;;;;;;;10.70;9.17;;;10.70;90.00;;;;;;4921098;29;20964;-84
2021/04/21 23:45:19;;;;;;;10.33;9.43;;;10.60;90.30;;;;;;4921671;29;20458;-84
2021/04/21 23:47:46;;;;;;;9.40;8.27;;;10.50;90.60;;;;;;4921699;29;20481;-84
2021/04/21 23:50:15;;;;;;;10.87;9.97;;;10.50;90.70;;;;;;4921775;29;20457;-84
2021/04/21 23:52:42;;;;;;;9.00;8.17;;;10.50;90.90;;;;;;4921692;29;20506;-84
2021/04/21 23:55:11;;;;;;;11.00;9.20;;;10.50;91.00;;;;;;4921453;29;20461;-84
2021/04/21 23:57:37;;;;;;;11.67;10.23;;;10.50;91.30;;;;;;4921662;29;20477;-84
